Time;durP1;ratioP1;P1;durP2;ratioP2;P2;SDS_P1;SDS_P2;PMS_P1;PMS_P2;Temp;Humidity;BMP_temperature;BMP_pressure;BME280_temperature;BME280_humidity;BME280_pressure;Samples;Min_cycle;Max_cycle;Signal;HPM_P1;HPM_P2
2022/03/03 00:02:10;;;;;;;5.20;4.28;;;16.10;45.10;;;;;;5096883;28;20413;-45
2022/03/03 00:04:36;;;;;;;5.43;3.95;;;16.10;45.10;;;;;;5096626;28;20029;-42
2022/03/03 00:07:02;;;;;;;5.10;4.32;;;16.10;45.10;;;;;;5096556;28;20066;-43
2022/03/03 00:09:29;;;;;;;4.45;4.00;;;16.10;45.10;;;;;;5096758;28;20074;-42
2022/03/03 00:11:56;;;;;;;5.13;4.15;;;16.10;45.10;;;;;;5096892;28;20020;-43
2022/03/03 00:14:22;;;;;;;4.90;4.18;;;16.10;45.20;;;;;;5097079;28;20016;-42
2022/03/03 00:16:48;;;;;;;5.55;4.20;;;16.10;45.10;;;;;;5095923;28;20081;-42
2022/03/03 00:19:14;;;;;;;5.22;4.13;;;16.10;45.20;;;;;;5097204;28;20047;-43
2022/03/03 00:21:40;;;;;;;5.35;4.20;;;16.10;45.20;;;;;;5097015;28;20020;-42
2022/03/03 00:24:06;;;;;;;5.72;4.47;;;16.10;45.20;;;;;;5097456;28;20028;-43
2022/03/03 00:26:32;;;;;;;4.97;4.28;;;16.10;45.20;;;;;;5097523;28;20489;-43
2022/03/03 00:28:58;;;;;;;6.03;4.00;;;16.10;45.20;;;;;;5096412;28;20479;-42
2022/03/03 00:31:24;;;;;;;5.80;4.22;;;16.10;45.20;;;;;;5096686;28;20032;-44
2022/03/03 00:33:50;;;;;;;6.13;4.05;;;16.10;45.20;;;;;;5097110;28;20028;-43
2022/03/03 00:36:16;;;;;;;4.45;4.03;;;16.10;45.20;;;;;;5097015;28;20118;-44
2022/03/03 00:38:42;;;;;;;5.18;4.30;;;16.10;45.20;;;;;;5096860;28;20455;-44
2022/03/03 00:41:08;;;;;;;5.57;4.55;;;16.10;45.20;;;;;;5095526;28;20046;-43
2022/03/03 00:43:34;;;;;;;6.65;4.65;;;16.10;45.20;;;;;;5096439;28;20028;-44
2022/03/03 00:46:00;;;;;;;5.05;4.10;;;16.00;45.20;;;;;;5094793;28;20038;-44
2022/03/03 00:48:26;;;;;;;4.85;4.28;;;16.00;45.20;;;;;;5095606;28;20388;-44
2022/03/03 00:50:52;;;;;;;5.40;4.20;;;16.00;45.20;;;;;;5095224;28;20520;-45
2022/03/03 00:53:18;;;;;;;5.40;4.15;;;16.00;45.20;;;;;;5094082;28;20024;-43
2022/03/03 00:55:44;;;;;;;4.82;4.32;;;16.00;45.20;;;;;;5094910;28;20074;-44
2022/03/03 00:58:10;;;;;;;5.85;4.35;;;16.10;45.20;;;;;;5093551;28;20027;-44
2022/03/03 01:00:35;;;;;;;4.35;3.95;;;16.00;45.20;;;;;;5094651;28;20032;-43
2022/03/03 01:03:01;;;;;;;5.15;4.53;;;16.00;45.20;;;;;;5094622;28;20044;-43
2022/03/03 01:05:28;;;;;;;6.30;4.63;;;16.00;45.20;;;;;;5094731;28;20047;-43
2022/03/03 01:07:53;;;;;;;6.40;4.85;;;16.00;45.20;;;;;;5094899;28;20519;-44
2022/03/03 01:10:20;;;;;;;5.95;4.15;;;16.00;45.20;;;;;;5094517;28;20475;-47
2022/03/03 01:12:47;;;;;;;7.05;4.53;;;16.00;45.30;;;;;;5095231;28;20012;-43
2022/03/03 01:15:13;;;;;;;5.40;4.50;;;16.00;45.30;;;;;;5095089;28;20020;-46
2022/03/03 01:17:39;;;;;;;5.85;4.43;;;16.00;45.30;;;;;;5095330;28;20021;-43
2022/03/03 01:20:06;;;;;;;4.80;4.32;;;16.00;45.30;;;;;;5094613;28;20520;-43
2022/03/03 01:22:34;;;;;;;7.40;4.55;;;16.00;45.30;;;;;;5095162;28;20090;-44
2022/03/03 01:25:00;;;;;;;5.80;4.50;;;16.00;45.30;;;;;;5094248;28;20024;-43
2022/03/03 01:27:27;;;;;;;6.10;4.30;;;16.00;45.20;;;;;;5094013;28;20009;-43
2022/03/03 01:29:53;;;;;;;5.93;4.45;;;16.00;45.30;;;;;;5094192;28;20446;-43
2022/03/03 01:32:20;;;;;;;5.10;4.50;;;16.00;45.30;;;;;;5095346;28;20020;-43
2022/03/03 01:34:46;;;;;;;4.68;4.18;;;16.00;45.80;;;;;;5094410;28;20096;-44
2022/03/03 01:37:12;;;;;;;5.25;4.50;;;16.00;45.20;;;;;;5094369;28;20028;-44
2022/03/03 01:39:38;;;;;;;5.82;4.40;;;16.00;45.20;;;;;;5093851;28;20022;-43
2022/03/03 01:42:06;;;;;;;5.00;4.00;;;16.00;45.30;;;;;;5092789;28;20482;-43
2022/03/03 01:44:32;;;;;;;5.15;4.28;;;16.00;45.30;;;;;;5093735;28;20031;-43
2022/03/03 01:47:00;;;;;;;5.18;4.40;;;16.00;45.20;;;;;;5094309;28;20008;-44
2022/03/03 01:49:26;;;;;;;6.60;4.63;;;16.00;45.20;;;;;;5093727;28;20008;-45
2022/03/03 01:51:52;;;;;;;4.57;4.07;;;16.00;45.30;;;;;;5092484;28;20027;-43
2022/03/03 01:54:18;;;;;;;5.45;4.43;;;16.00;45.20;;;;;;5093892;28;20020;-43
2022/03/03 01:56:45;;;;;;;5.35;4.50;;;15.90;45.20;;;;;;5093783;28;20016;-43
2022/03/03 01:59:12;;;;;;;6.35;4.45;;;16.00;45.30;;;;;;5092403;28;20035;-44
2022/03/03 02:01:38;;;;;;;6.85;4.90;;;16.00;45.20;;;;;;5075205;28;20107;-44
2022/03/03 02:04:07;;;;;;;5.70;4.28;;;15.90;45.20;;;;;;5093286;28;20027;-43
2022/03/03 02:06:34;;;;;;;5.53;4.38;;;15.90;45.20;;;;;;5093643;28;20001;-43
2022/03/03 02:09:00;;;;;;;6.35;4.15;;;15.90;45.20;;;;;;5092098;28;20483;-44
2022/03/03 02:11:26;;;;;;;6.95;4.70;;;15.90;45.20;;;;;;5093083;28;20023;-43
2022/03/03 02:13:52;;;;;;;5.70;4.40;;;15.90;45.20;;;;;;5094130;28;20035;-43
2022/03/03 02:16:18;;;;;;;6.13;4.70;;;15.90;45.20;;;;;;5094494;28;20478;-43
2022/03/03 02:18:45;;;;;;;5.35;4.50;;;15.90;45.20;;;;;;5092816;28;20058;-43
2022/03/03 02:21:15;;;;;;;7.70;4.80;;;15.90;45.20;;;;;;5093334;28;20028;-43
2022/03/03 02:23:41;;;;;;;6.82;4.53;;;15.90;45.10;;;;;;5094719;28;20008;-42
2022/03/03 02:26:34;;;;;;;5.97;4.60;;;15.90;45.20;;;;;;5092360;28;20023;-43
2022/03/03 02:29:00;;;;;;;5.68;4.50;;;15.90;45.20;;;;;;5091872;28;20043;-43
2022/03/03 02:31:26;;;;;;;7.50;4.28;;;15.90;45.10;;;;;;5093214;28;20016;-44
2022/03/03 02:33:53;;;;;;;5.68;4.47;;;15.90;45.20;;;;;;5092787;28;20048;-43
2022/03/03 02:36:20;;;;;;;5.90;4.40;;;15.90;45.20;;;;;;5092935;28;20084;-43
2022/03/03 02:38:47;;;;;;;7.57;4.93;;;15.90;45.20;;;;;;5093097;28;20073;-43
2022/03/03 02:41:13;;;;;;;7.60;5.10;;;15.90;45.20;;;;;;5092952;28;20117;-43
2022/03/03 02:43:39;;;;;;;4.90;4.40;;;15.90;45.20;;;;;;5092760;28;20145;-43
2022/03/03 02:46:06;;;;;;;5.75;4.47;;;15.90;45.20;;;;;;5092993;28;20019;-42
2022/03/03 02:48:32;;;;;;;5.07;4.50;;;15.90;45.20;;;;;;5093033;28;20017;-42
2022/03/03 02:50:59;;;;;;;5.15;4.43;;;15.90;45.20;;;;;;5093006;28;20016;-42
2022/03/03 02:53:24;;;;;;;5.85;4.78;;;15.90;45.20;;;;;;5093583;28;20383;-43
2022/03/03 02:55:51;;;;;;;5.53;4.95;;;15.90;45.20;;;;;;5096891;28;20028;-43
2022/03/03 02:58:17;;;;;;;5.10;4.60;;;15.80;45.10;;;;;;5097116;28;20062;-43
2022/03/03 03:00:44;;;;;;;6.63;4.97;;;15.80;45.10;;;;;;5096802;28;20105;-43
2022/03/03 03:03:10;;;;;;;6.47;4.70;;;15.80;45.10;;;;;;5097255;28;20089;-43
2022/03/03 03:05:36;;;;;;;5.95;4.82;;;15.80;45.10;;;;;;5095947;28;20047;-43
2022/03/03 03:08:02;;;;;;;5.10;4.35;;;15.80;45.10;;;;;;5095680;28;20539;-43
2022/03/03 03:10:28;;;;;;;5.10;4.50;;;15.80;45.50;;;;;;5096662;28;20026;-43
2022/03/03 03:12:55;;;;;;;6.90;5.18;;;15.90;45.20;;;;;;5096608;28;20020;-43
2022/03/03 03:15:21;;;;;;;5.05;4.45;;;15.80;45.10;;;;;;5096488;28;20012;-42
2022/03/03 03:17:47;;;;;;;6.43;4.70;;;15.80;45.20;;;;;;5096655;28;20027;-43
2022/03/03 03:20:13;;;;;;;7.35;4.38;;;15.80;45.10;;;;;;5096163;28;20048;-42
2022/03/03 03:22:39;;;;;;;5.60;4.50;;;15.80;45.20;;;;;;5095114;28;20080;-42
2022/03/03 03:25:09;;;;;;;5.22;4.50;;;15.80;45.20;;;;;;5095643;28;20081;-43
2022/03/03 03:27:39;;;;;;;7.15;4.50;;;15.80;45.20;;;;;;5097259;28;20021;-43
2022/03/03 03:30:07;;;;;;;5.35;4.57;;;15.80;45.20;;;;;;5096510;28;20008;-42
2022/03/03 03:32:33;;;;;;;7.00;4.90;;;15.80;45.20;;;;;;5096133;28;20017;-42
2022/03/03 03:34:59;;;;;;;5.28;4.53;;;15.80;45.10;;;;;;5096121;28;20013;-44
2022/03/03 03:37:26;;;;;;;5.35;4.60;;;15.80;45.20;;;;;;5096382;28;20016;-42
2022/03/03 03:39:52;;;;;;;7.30;4.82;;;15.80;45.20;;;;;;5096056;28;20031;-43
2022/03/03 03:42:18;;;;;;;6.78;4.63;;;15.80;45.20;;;;;;5096356;28;20027;-43
2022/03/03 03:44:44;;;;;;;6.65;4.78;;;15.80;45.20;;;;;;5096616;28;20022;-43
2022/03/03 03:47:12;;;;;;;7.03;5.07;;;15.80;45.20;;;;;;5096350;28;20052;-43
2022/03/03 03:49:38;;;;;;;5.88;4.45;;;15.70;45.10;;;;;;5096262;28;20017;-44
2022/03/03 03:52:05;;;;;;;5.95;5.15;;;15.70;45.10;;;;;;5096036;28;20016;-42
2022/03/03 03:54:31;;;;;;;6.28;5.03;;;15.70;45.10;;;;;;5095940;28;20012;-43
2022/03/03 03:56:57;;;;;;;5.50;4.60;;;15.70;45.10;;;;;;5096922;28;20028;-43
2022/03/03 03:59:23;;;;;;;5.93;4.78;;;15.80;45.20;;;;;;5098723;28;20069;-45
2022/03/03 04:01:49;;;;;;;6.03;5.25;;;15.70;45.10;;;;;;5098956;28;20020;-46
2022/03/03 04:04:16;;;;;;;5.88;4.68;;;15.70;45.10;;;;;;5097959;28;20498;-44
2022/03/03 04:06:42;;;;;;;6.00;4.78;;;15.70;45.10;;;;;;5098705;28;20036;-45
2022/03/03 04:09:07;;;;;;;6.72;4.95;;;15.70;45.10;;;;;;5098871;28;20379;-47
2022/03/03 04:11:34;;;;;;;6.10;5.05;;;15.70;45.10;;;;;;5097998;28;20103;-45
2022/03/03 04:14:00;;;;;;;6.30;5.05;;;15.70;45.10;;;;;;5097247;28;20024;-47
2022/03/03 04:16:26;;;;;;;5.68;4.60;;;15.70;45.10;;;;;;5096989;28;20023;-44
2022/03/03 04:18:53;;;;;;;5.22;4.72;;;15.70;45.10;;;;;;5095741;28;20032;-44
2022/03/03 04:21:18;;;;;;;6.88;4.57;;;15.70;45.10;;;;;;5095968;28;20364;-43
2022/03/03 04:23:45;;;;;;;6.05;4.63;;;15.80;45.20;;;;;;5096413;28;20021;-44
2022/03/03 04:26:11;;;;;;;6.35;5.05;;;15.70;45.10;;;;;;5096113;28;20012;-44
2022/03/03 04:28:36;;;;;;;6.82;5.13;;;15.70;45.10;;;;;;5093846;28;20012;-43
2022/03/03 04:31:03;;;;;;;6.35;5.25;;;15.70;45.10;;;;;;5095135;28;20085;-43
2022/03/03 04:33:28;;;;;;;5.90;4.28;;;15.70;45.10;;;;;;5095076;28;20016;-44
2022/03/03 04:35:54;;;;;;;5.30;4.68;;;15.70;45.10;;;;;;5093979;28;20471;-43
2022/03/03 04:38:20;;;;;;;6.50;4.63;;;15.70;45.10;;;;;;5094164;28;20091;-43
2022/03/03 04:40:47;;;;;;;7.00;4.80;;;15.70;45.10;;;;;;5095150;28;20016;-43
2022/03/03 04:43:12;;;;;;;5.75;4.50;;;15.70;45.10;;;;;;5095032;28;20027;-43
2022/03/03 04:45:38;;;;;;;5.75;4.93;;;15.70;45.10;;;;;;5094988;28;20020;-43
2022/03/03 04:48:04;;;;;;;6.55;4.88;;;15.70;45.70;;;;;;5093427;28;20005;-43
2022/03/03 04:50:30;;;;;;;5.70;4.72;;;15.70;45.20;;;;;;5093914;28;20058;-42
2022/03/03 04:52:56;;;;;;;5.05;4.47;;;15.70;45.10;;;;;;5093566;28;20020;-42
2022/03/03 04:55:23;;;;;;;6.38;4.55;;;15.70;45.10;;;;;;5094711;28;20023;-43
2022/03/03 04:57:49;;;;;;;6.68;4.80;;;15.70;45.10;;;;;;5094935;28;20012;-44
2022/03/03 05:00:15;;;;;;;6.07;4.53;;;15.60;45.10;;;;;;5094740;28;20102;-45
2022/03/03 05:02:42;;;;;;;7.70;4.50;;;15.60;45.10;;;;;;5094675;28;20008;-43
2022/03/03 05:05:08;;;;;;;6.75;5.22;;;15.60;45.10;;;;;;5094716;28;20009;-44
2022/03/03 05:07:36;;;;;;;6.20;4.68;;;15.60;45.10;;;;;;5094902;28;20036;-43
2022/03/03 05:10:03;;;;;;;6.32;4.65;;;15.60;45.10;;;;;;5094719;28;20012;-44
2022/03/03 05:12:29;;;;;;;5.72;4.55;;;15.70;45.70;;;;;;5093466;28;20062;-43
2022/03/03 05:14:56;;;;;;;5.00;4.50;;;15.60;45.10;;;;;;5094599;28;20413;-43
2022/03/03 05:17:22;;;;;;;6.80;5.00;;;15.70;45.10;;;;;;5094640;28;20016;-43
2022/03/03 05:19:48;;;;;;;6.57;5.25;;;15.60;45.10;;;;;;5094168;28;20039;-43
2022/03/03 05:22:14;;;;;;;7.30;4.75;;;15.60;45.10;;;;;;5094393;28;20390;-43
2022/03/03 05:24:40;;;;;;;5.75;4.82;;;15.60;45.10;;;;;;5094161;28;20009;-43
2022/03/03 05:27:06;;;;;;;5.10;4.60;;;15.60;45.10;;;;;;5094470;28;20012;-44
2022/03/03 05:29:34;;;;;;;6.97;5.20;;;15.60;45.10;;;;;;5094425;28;20005;-43
2022/03/03 05:31:59;;;;;;;6.10;4.72;;;15.60;45.10;;;;;;5094411;28;20016;-42
2022/03/03 05:34:26;;;;;;;6.25;5.03;;;15.60;45.10;;;;;;5094362;28;20091;-44
2022/03/03 05:36:52;;;;;;;5.90;4.90;;;15.60;45.10;;;;;;5094048;28;20012;-44
2022/03/03 05:39:18;;;;;;;5.82;4.72;;;15.60;45.10;;;;;;5094134;28;20150;-43
2022/03/03 05:41:44;;;;;;;5.93;5.13;;;15.60;45.10;;;;;;5093707;28;20534;-43
2022/03/03 05:44:13;;;;;;;5.68;4.78;;;15.60;45.10;;;;;;5093935;28;20019;-43
2022/03/03 05:46:42;;;;;;;6.30;4.80;;;15.60;45.10;;;;;;5093601;28;20019;-43
2022/03/03 05:49:08;;;;;;;6.82;4.90;;;15.60;45.10;;;;;;5093623;28;20359;-43
2022/03/03 05:51:34;;;;;;;6.80;4.90;;;15.60;45.10;;;;;;5093752;28;20099;-43
2022/03/03 05:54:00;;;;;;;5.35;4.38;;;15.60;45.10;;;;;;5093742;28;20020;-44
2022/03/03 05:56:27;;;;;;;5.00;4.45;;;15.60;45.10;;;;;;5094245;28;20020;-43
2022/03/03 05:58:53;;;;;;;7.75;4.70;;;15.60;45.10;;;;;;5076670;28;20041;-43
2022/03/03 06:01:19;;;;;;;5.45;4.88;;;15.60;45.10;;;;;;5076915;28;20020;-43
2022/03/03 06:03:46;;;;;;;5.78;4.72;;;15.60;45.10;;;;;;5096288;28;20070;-42
2022/03/03 06:06:19;;;;;;;4.85;4.32;;;15.50;45.10;;;;;;5095322;28;20016;-43
2022/03/03 06:08:58;;;;;;;5.90;4.72;;;15.50;45.10;;;;;;5095643;28;20092;-42
2022/03/03 06:11:25;;;;;;;7.72;4.38;;;15.50;45.10;;;;;;5093285;28;20027;-42
2022/03/03 06:13:52;;;;;;;6.28;4.68;;;15.50;45.10;;;;;;5093233;28;20111;-42
2022/03/03 06:16:18;;;;;;;6.90;5.13;;;15.50;45.10;;;;;;5092106;28;20044;-43
2022/03/03 06:18:48;;;;;;;5.15;4.38;;;15.50;45.10;;;;;;5093207;28;20055;-44
2022/03/03 06:21:15;;;;;;;5.47;4.88;;;15.50;45.10;;;;;;5093592;28;20032;-44
2022/03/03 06:23:41;;;;;;;7.00;5.15;;;15.50;45.10;;;;;;5093754;28;20055;-42
2022/03/03 06:26:08;;;;;;;5.95;4.78;;;15.50;45.10;;;;;;5094062;28;20054;-43
2022/03/03 06:28:34;;;;;;;6.93;4.65;;;15.50;45.10;;;;;;5093076;28;20370;-43
2022/03/03 06:31:00;;;;;;;5.35;4.53;;;15.50;45.10;;;;;;5092176;28;20588;-42
2022/03/03 06:33:26;;;;;;;10.20;5.03;;;15.50;45.10;;;;;;5093810;28;20028;-44
2022/03/03 06:35:52;;;;;;;8.95;5.05;;;15.50;45.20;;;;;;5092875;28;20028;-43
2022/03/03 06:38:19;;;;;;;5.15;4.55;;;15.50;45.20;;;;;;5092885;28;20486;-41
2022/03/03 06:40:44;;;;;;;5.05;4.32;;;15.50;45.20;;;;;;5092903;28;20107;-44
2022/03/03 06:43:10;;;;;;;5.90;4.70;;;15.50;45.10;;;;;;5091644;28;20020;-43
2022/03/03 06:45:36;;;;;;;6.80;5.15;;;15.50;45.10;;;;;;5093399;28;20460;-43
2022/03/03 06:48:04;;;;;;;7.72;5.57;;;15.50;45.10;;;;;;5093089;28;20008;-43
2022/03/03 06:50:30;;;;;;;5.68;4.60;;;15.50;45.10;;;;;;5092980;28;20015;-43
2022/03/03 06:52:56;;;;;;;6.53;4.90;;;15.50;45.20;;;;;;5093102;28;20016;-42
2022/03/03 06:55:24;;;;;;;5.90;4.93;;;15.50;45.10;;;;;;5093628;28;20096;-44
2022/03/03 06:57:52;;;;;;;6.60;4.95;;;15.50;45.20;;;;;;5094083;28;20027;-41
2022/03/03 07:00:19;;;;;;;8.25;4.93;;;15.50;45.10;;;;;;5093830;28;20028;-42
2022/03/03 07:02:46;;;;;;;6.80;5.10;;;15.50;45.10;;;;;;5092350;28;20013;-41
2022/03/03 07:05:12;;;;;;;4.90;4.40;;;15.50;44.90;;;;;;5091798;28;20020;-42
2022/03/03 07:07:38;;;;;;;7.72;4.72;;;15.50;44.90;;;;;;5093061;28;20057;-42
2022/03/03 07:10:04;;;;;;;15.60;5.97;;;15.50;44.90;;;;;;5091797;28;20088;-41
2022/03/03 07:12:30;;;;;;;9.43;5.40;;;15.40;44.60;;;;;;5092997;28;20101;-41
2022/03/03 07:14:55;;;;;;;18.50;6.20;;;15.40;44.60;;;;;;5092773;28;20482;-41
2022/03/03 07:17:53;;;;;;;11.90;5.47;;;15.40;44.40;;;;;;5093539;28;20458;-42
2022/03/03 07:20:45;;;;;;;31.58;10.48;;;15.50;43.80;;;;;;5092605;28;20076;-45
2022/03/03 07:23:21;;;;;;;35.67;10.80;;;15.40;43.40;;;;;;5092488;28;20012;-42
2022/03/03 07:25:49;;;;;;;35.45;11.90;;;15.40;44.30;;;;;;5092735;28;20016;-43
2022/03/03 07:28:15;;;;;;;38.25;11.20;;;15.50;46.80;;;;;;5092614;28;20095;-45
2022/03/03 07:30:42;;;;;;;34.88;10.45;;;15.40;46.30;;;;;;5092931;28;20013;-43
2022/03/03 07:33:12;;;;;;;25.90;8.75;;;15.40;44.60;;;;;;5092958;28;20023;-44
2022/03/03 07:35:41;;;;;;;30.88;10.27;;;15.40;44.30;;;;;;5093003;28;20018;-45
2022/03/03 07:38:14;;;;;;;32.53;10.57;;;15.40;44.50;;;;;;5092587;28;20009;-43
2022/03/03 07:40:42;;;;;;;33.42;10.20;;;15.30;44.60;;;;;;5095136;28;20020;-43
2022/03/03 07:43:08;;;;;;;25.42;10.68;;;15.30;44.50;;;;;;5096332;28;20016;-44
2022/03/03 07:45:36;;;;;;;38.05;11.10;;;15.30;44.40;;;;;;5096165;28;20004;-43
2022/03/03 07:48:02;;;;;;;32.30;12.68;;;15.30;44.20;;;;;;5096274;28;20016;-43
2022/03/03 07:50:28;;;;;;;23.80;10.90;;;15.30;43.70;;;;;;5094939;28;20502;-43
2022/03/03 07:52:53;;;;;;;26.35;11.07;;;15.30;42.80;;;;;;5095767;28;20087;-45
2022/03/03 07:55:20;;;;;;;22.05;10.52;;;15.30;42.70;;;;;;5095693;28;20012;-43
2022/03/03 07:58:04;;;;;;;31.40;11.93;;;15.30;42.50;;;;;;5094421;28;20016;-44
2022/03/03 08:00:33;;;;;;;24.83;10.95;;;15.40;42.50;;;;;;5094810;28;20062;-43
2022/03/03 08:03:00;;;;;;;24.02;11.48;;;15.40;42.50;;;;;;5094675;28;20004;-44
2022/03/03 08:05:28;;;;;;;25.52;10.80;;;15.30;42.40;;;;;;5095439;28;20008;-44
2022/03/03 08:07:55;;;;;;;16.73;10.52;;;15.30;42.80;;;;;;5094731;28;20077;-45
2022/03/03 08:10:22;;;;;;;30.90;10.88;;;15.30;42.50;;;;;;5095696;28;20038;-44
2022/03/03 08:12:48;;;;;;;22.45;10.50;;;15.40;42.50;;;;;;5094788;28;20020;-44
2022/03/03 08:15:13;;;;;;;20.88;11.07;;;15.30;42.40;;;;;;5077541;28;20352;-44
2022/03/03 08:17:40;;;;;;;23.05;10.93;;;15.30;42.70;;;;;;5095380;28;20069;-43
2022/03/03 08:20:07;;;;;;;22.13;10.02;;;15.30;42.30;;;;;;5095085;28;20040;-43
2022/03/03 08:22:33;;;;;;;19.33;10.40;;;15.40;42.50;;;;;;5095605;28;20050;-43
2022/03/03 08:24:59;;;;;;;21.83;10.50;;;15.30;42.30;;;;;;5095544;28;20005;-44
2022/03/03 08:27:26;;;;;;;25.65;12.55;;;15.40;42.90;;;;;;5094985;28;20527;-43
2022/03/03 08:29:52;;;;;;;38.58;16.80;;;15.40;42.50;;;;;;5077129;28;20020;-43
2022/03/03 08:32:19;;;;;;;32.30;16.60;;;15.40;42.80;;;;;;5095027;28;20016;-43
2022/03/03 08:35:10;;;;;;;33.10;16.35;;;15.40;43.00;;;;;;5095301;28;20050;-44
2022/03/03 08:37:39;;;;;;;36.30;16.13;;;15.40;43.50;;;;;;5095175;28;20020;-49
2022/03/03 08:40:07;;;;;;;37.63;17.05;;;15.40;44.10;;;;;;5093618;28;20016;-48
2022/03/03 08:42:40;;;;;;;34.33;16.58;;;15.40;44.20;;;;;;5095213;28;20099;-49
2022/03/03 08:45:08;;;;;;;46.72;17.40;;;15.40;44.20;;;;;;5095190;28;20020;-45
2022/03/03 08:47:34;;;;;;;50.40;17.25;;;15.40;44.10;;;;;;5093973;28;20015;-47
2022/03/03 08:50:04;;;;;;;54.45;17.92;;;15.50;44.10;;;;;;5093610;28;20016;-46
2022/03/03 08:52:30;;;;;;;46.27;17.43;;;15.40;46.10;;;;;;5094886;28;20058;-44
2022/03/03 08:54:56;;;;;;;46.05;18.35;;;15.50;47.20;;;;;;5094710;28;20015;-44
2022/03/03 08:57:22;;;;;;;48.80;18.27;;;15.40;47.70;;;;;;5094621;28;20024;-46
2022/03/03 08:59:48;;;;;;;45.17;17.75;;;15.50;48.70;;;;;;5093272;28;20531;-45
2022/03/03 09:02:16;;;;;;;38.60;16.05;;;15.40;49.10;;;;;;5093193;28;20024;-43
2022/03/03 09:04:43;;;;;;;32.38;16.88;;;15.50;50.20;;;;;;5096688;28;20012;-47
2022/03/03 09:07:09;;;;;;;42.60;17.17;;;15.50;51.60;;;;;;5094784;28;20092;-44
2022/03/03 09:09:35;;;;;;;47.20;18.15;;;15.50;51.80;;;;;;5095710;28;20012;-45
2022/03/03 09:12:03;;;;;;;37.20;17.55;;;15.50;52.70;;;;;;5094486;28;20471;-47
2022/03/03 09:14:30;;;;;;;36.47;16.67;;;15.50;52.20;;;;;;5094484;28;20055;-48
2022/03/03 09:16:56;;;;;;;40.35;17.52;;;15.50;52.50;;;;;;5094202;28;20027;-48
2022/03/03 09:19:23;;;;;;;31.13;15.90;;;15.50;52.40;;;;;;5094161;28;20517;-49
2022/03/03 09:21:49;;;;;;;34.00;16.55;;;15.50;52.80;;;;;;5094193;28;20024;-46
2022/03/03 09:24:15;;;;;;;35.55;17.35;;;15.50;52.60;;;;;;5093156;28;20077;-48
2022/03/03 09:26:40;;;;;;;33.53;16.30;;;15.40;52.30;;;;;;5093928;28;20428;-49
2022/03/03 09:29:07;;;;;;;26.70;16.08;;;15.50;52.20;;;;;;5094632;28;20016;-50
2022/03/03 09:31:33;;;;;;;32.88;16.67;;;15.50;52.70;;;;;;5093173;28;20069;-47
2022/03/03 09:33:59;;;;;;;33.75;15.73;;;15.40;51.40;;;;;;5094655;28;20019;-51
2022/03/03 09:36:25;;;;;;;29.35;15.15;;;15.50;50.90;;;;;;5094456;28;20432;-48
2022/03/03 09:38:51;;;;;;;27.80;15.05;;;15.50;50.40;;;;;;5094221;28;20024;-50
2022/03/03 09:41:17;;;;;;;30.15;15.57;;;15.50;50.10;;;;;;5094374;28;20016;-50
2022/03/03 09:43:43;;;;;;;23.95;14.88;;;15.50;50.00;;;;;;5094146;28;20097;-48
2022/03/03 09:46:11;;;;;;;31.70;15.55;;;15.50;49.30;;;;;;5092632;28;20117;-50
2022/03/03 09:48:36;;;;;;;32.65;15.23;;;15.50;48.90;;;;;;5093737;28;20017;-49
2022/03/03 09:51:02;;;;;;;21.27;14.05;;;15.50;48.70;;;;;;5093829;28;20023;-48
2022/03/03 09:53:28;;;;;;;28.38;16.02;;;15.50;48.90;;;;;;5094296;28;20562;-51
2022/03/03 09:55:53;;;;;;;21.13;14.10;;;15.50;48.20;;;;;;5094332;28;20425;-50
2022/03/03 09:58:20;;;;;;;29.08;15.07;;;15.50;47.90;;;;;;5094771;28;20020;-50
2022/03/03 10:00:46;;;;;;;24.10;14.32;;;15.50;48.00;;;;;;5094246;28;20048;-46
2022/03/03 10:03:16;;;;;;;20.75;13.63;;;15.50;47.90;;;;;;5094349;28;20070;-48
2022/03/03 10:05:47;;;;;;;22.63;14.77;;;15.50;47.40;;;;;;5094571;28;20455;-49
2022/03/03 10:08:14;;;;;;;;;;;15.50;47.50;;;;;;5095137;28;20040;-47
2022/03/03 10:10:41;;;;;;;23.65;15.07;;;15.50;47.30;;;;;;5094050;28;19900;-46
2022/03/03 10:13:10;;;;;;;27.00;15.23;;;15.50;47.20;;;;;;5096512;28;20020;-50
2022/03/03 10:15:36;;;;;;;25.13;14.23;;;15.50;47.10;;;;;;5096050;28;20040;-49
2022/03/03 10:18:09;;;;;;;28.00;14.48;;;15.50;47.00;;;;;;5095123;28;20387;-49
2022/03/03 10:20:53;;;;;;;22.63;15.25;;;15.50;46.90;;;;;;5094550;28;20048;-47
2022/03/03 10:23:26;;;;;;;24.73;14.98;;;15.50;46.80;;;;;;5094796;28;20047;-47
2022/03/03 10:25:53;;;;;;;17.73;14.05;;;15.50;46.60;;;;;;5094551;28;20020;-44
2022/03/03 10:28:23;;;;;;;19.67;14.50;;;15.50;46.50;;;;;;5093839;28;20009;-46
2022/03/03 10:30:55;;;;;;;20.80;14.25;;;15.50;46.40;;;;;;5093373;28;20017;-46
2022/03/03 10:33:23;;;;;;;18.40;14.52;;;15.60;46.40;;;;;;5093445;28;20078;-45
2022/03/03 10:36:05;;;;;;;26.85;13.82;;;15.60;46.40;;;;;;5093330;28;20499;-47
2022/03/03 10:38:31;;;;;;;22.42;13.98;;;15.60;46.40;;;;;;5093600;28;20073;-45
2022/03/03 10:40:57;;;;;;;18.65;14.00;;;15.50;46.20;;;;;;5093495;28;20020;-49
2022/03/03 10:43:23;;;;;;;24.27;13.98;;;15.50;46.10;;;;;;5092675;28;20091;-45
2022/03/03 10:45:56;;;;;;;22.67;14.80;;;15.60;46.20;;;;;;5091812;28;20095;-45
2022/03/03 10:48:24;;;;;;;23.15;14.63;;;15.60;46.20;;;;;;5093052;28;20091;-49
2022/03/03 10:50:51;;;;;;;23.42;14.57;;;15.60;46.20;;;;;;5093004;28;20020;-46
2022/03/03 10:53:20;;;;;;;22.45;14.75;;;15.60;46.20;;;;;;5092674;28;20017;-48
2022/03/03 10:56:01;;;;;;;24.30;14.48;;;15.60;46.40;;;;;;5091578;28;20012;-46
2022/03/03 10:58:52;;;;;;;21.65;14.18;;;15.60;46.10;;;;;;5093854;28;20065;-45
2022/03/03 11:01:20;;;;;;;16.33;13.88;;;15.60;46.10;;;;;;5093648;28;20043;-47
2022/03/03 11:03:49;;;;;;;19.73;14.38;;;15.60;46.00;;;;;;5093522;28;20012;-48
2022/03/03 11:06:26;;;;;;;20.08;13.77;;;15.60;46.00;;;;;;5093260;28;20013;-47
2022/03/03 11:08:53;;;;;;;18.48;13.88;;;15.60;46.00;;;;;;5093084;28;20097;-47
2022/03/03 11:11:20;;;;;;;21.45;13.65;;;15.60;45.90;;;;;;5093683;28;20023;-51
2022/03/03 11:13:47;;;;;;;24.77;13.68;;;15.60;46.00;;;;;;5096181;28;20050;-51
2022/03/03 11:16:17;;;;;;;20.30;14.15;;;15.60;45.90;;;;;;5099023;28;20023;-51
2022/03/03 11:18:43;;;;;;;17.42;13.40;;;15.60;45.90;;;;;;5097370;28;20425;-48
2022/03/03 11:21:09;;;;;;;19.35;14.25;;;15.60;45.90;;;;;;5098504;28;20046;-48
2022/03/03 11:23:41;;;;;;;19.85;13.57;;;15.60;45.90;;;;;;5098496;28;20013;-47
2022/03/03 11:26:09;;;;;;;23.33;14.60;;;15.60;45.90;;;;;;5078985;28;20016;-48
2022/03/03 11:28:36;;;;;;;17.52;13.55;;;15.60;45.80;;;;;;5096950;28;20024;-51
2022/03/03 11:31:30;;;;;;;18.52;14.35;;;15.60;45.80;;;;;;5096160;28;20023;-50
2022/03/03 11:34:21;;;;;;;20.73;14.52;;;15.60;45.80;;;;;;5096781;28;20012;-50
2022/03/03 11:36:50;;;;;;;19.15;13.55;;;15.60;45.80;;;;;;5097980;28;20088;-50
2022/03/03 11:39:34;;;;;;;19.10;13.88;;;15.60;45.80;;;;;;5097684;28;20023;-50
2022/03/03 11:42:20;;;;;;;19.55;13.60;;;15.60;45.80;;;;;;5096275;28;20028;-51
2022/03/03 11:44:45;;;;;;;21.85;14.07;;;15.60;45.70;;;;;;5096462;28;20012;-49
2022/03/03 11:47:21;;;;;;;19.33;13.55;;;15.70;45.80;;;;;;5096189;28;20398;-49
2022/03/03 11:50:07;;;;;;;17.05;13.57;;;15.60;45.70;;;;;;5097474;28;20005;-51
2022/03/03 11:52:34;;;;;;;20.20;14.15;;;15.70;45.80;;;;;;5096994;28;20031;-51
2022/03/03 11:55:30;;;;;;;16.77;13.60;;;15.60;45.70;;;;;;5096185;28;20008;-50
2022/03/03 11:58:03;;;;;;;19.48;13.68;;;15.70;45.80;;;;;;5096536;28;20020;-48
2022/03/03 12:00:31;;;;;;;18.13;13.70;;;15.70;45.70;;;;;;5097066;28;20112;-50
2022/03/03 12:03:02;;;;;;;21.80;14.05;;;15.70;45.70;;;;;;5097563;28;20627;-49
2022/03/03 12:05:28;;;;;;;19.95;13.77;;;15.60;45.70;;;;;;5098098;28;20024;-51
2022/03/03 12:07:57;;;;;;;17.02;13.63;;;15.70;45.70;;;;;;5097834;28;20379;-48
2022/03/03 12:10:23;;;;;;;20.35;14.00;;;15.60;45.60;;;;;;5097673;28;20017;-49
2022/03/03 12:12:49;;;;;;;23.50;14.48;;;15.70;45.60;;;;;;5095894;28;20103;-52
2022/03/03 12:15:15;;;;;;;17.88;13.10;;;15.70;45.60;;;;;;5095594;28;20008;-48
2022/03/03 12:17:44;;;;;;;18.38;13.75;;;15.70;45.60;;;;;;5095423;28;20016;-46
2022/03/03 12:20:33;;;;;;;17.58;13.90;;;15.70;45.60;;;;;;5096356;28;20036;-51
2022/03/03 12:23:10;;;;;;;18.23;13.65;;;15.70;45.60;;;;;;5096880;28;20024;-50
2022/03/03 12:25:55;;;;;;;17.90;12.95;;;15.70;45.50;;;;;;5095912;28;20016;-44
2022/03/03 12:28:45;;;;;;;18.30;13.13;;;15.70;45.50;;;;;;5096084;28;20044;-45
2022/03/03 12:31:27;;;;;;;17.67;13.60;;;15.70;45.50;;;;;;5096401;28;20020;-48
2022/03/03 12:34:05;;;;;;;19.95;13.40;;;15.70;45.40;;;;;;5097229;28;20095;-48
2022/03/03 12:36:31;;;;;;;17.88;13.95;;;15.80;45.50;;;;;;5097481;28;20016;-47
2022/03/03 12:38:57;;;;;;;18.35;13.73;;;15.70;45.40;;;;;;5096416;28;20020;-46
2022/03/03 12:41:29;;;;;;;16.50;13.13;;;15.70;45.40;;;;;;5095766;28;20012;-45
2022/03/03 12:44:05;;;;;;;17.65;13.30;;;15.70;45.50;;;;;;5095404;28;20008;-46